sensor_id;sensor_type;location;lat;lon;timestamp;pressure;altitude;pressure_sealevel;temperature;humidity
60479;BME280;46321;48.398;11.754;2023-02-19T00:00:58;97006.28;;;10.49;63.86
60479;BME280;46321;48.398;11.754;2023-02-19T00:03:25;96998.22;;;10.59;63.71
60479;BME280;46321;48.398;11.754;2023-02-19T00:05:51;96994.41;;;10.62;63.65
60479;BME280;46321;48.398;11.754;2023-02-19T00:08:16;96989.78;;;10.56;63.88
60479;BME280;46321;48.398;11.754;2023-02-19T00:10:41;96998.22;;;10.59;63.58
60479;BME280;46321;48.398;11.754;2023-02-19T00:13:06;96988.28;;;10.53;63.80
60479;BME280;46321;48.398;11.754;2023-02-19T00:15:32;96991.44;;;10.57;63.65
60479;BME280;46321;48.398;11.754;2023-02-19T00:17:57;96985.63;;;10.53;63.74
60479;BME280;46321;48.398;11.754;2023-02-19T00:20:22;96980.50;;;10.51;63.67
60479;BME280;46321;48.398;11.754;2023-02-19T00:22:48;96981.69;;;10.57;63.64
60479;BME280;46321;48.398;11.754;2023-02-19T00:25:13;96975.38;;;10.50;63.87
60479;BME280;46321;48.398;11.754;2023-02-19T00:27:38;96969.75;;;10.53;63.71
60479;BME280;46321;48.398;11.754;2023-02-19T00:30:04;96964.78;;;10.50;63.30
60479;BME280;46321;48.398;11.754;2023-02-19T00:32:29;96970.53;;;10.45;63.70
60479;BME280;46321;48.398;11.754;2023-02-19T00:34:54;96976.50;;;10.47;63.74
60479;BME280;46321;48.398;11.754;2023-02-19T00:37:20;96976.00;;;10.44;63.96
60479;BME280;46321;48.398;11.754;2023-02-19T00:39:45;96970.53;;;10.45;63.93
60479;BME280;46321;48.398;11.754;2023-02-19T00:42:10;96968.38;;;10.40;64.05
60479;BME280;46321;48.398;11.754;2023-02-19T00:44:36;96961.78;;;10.45;63.90
60479;BME280;46321;48.398;11.754;2023-02-19T00:47:01;96955.63;;;10.36;63.94
60479;BME280;46321;48.398;11.754;2023-02-19T00:49:26;96961.94;;;10.35;64.18
60479;BME280;46321;48.398;11.754;2023-02-19T00:51:52;96955.97;;;10.33;64.04
60479;BME280;46321;48.398;11.754;2023-02-19T00:54:17;96952.50;;;10.32;64.27
60479;BME280;46321;48.398;11.754;2023-02-19T00:56:43;96954.13;;;10.25;64.40
60479;BME280;46321;48.398;11.754;2023-02-19T00:59:09;96958.09;;;10.21;64.65
60479;BME280;46321;48.398;11.754;2023-02-19T01:01:34;96945.03;;;10.27;64.49
60479;BME280;46321;48.398;11.754;2023-02-19T01:03:59;96953.81;;;10.28;64.28
60479;BME280;46321;48.398;11.754;2023-02-19T01:06:25;96947.63;;;10.11;65.16
60479;BME280;46321;48.398;11.754;2023-02-19T01:08:50;96942.88;;;10.14;64.93
60479;BME280;46321;48.398;11.754;2023-02-19T01:11:16;96948.94;;;10.06;65.55
60479;BME280;46321;48.398;11.754;2023-02-19T01:13:42;96940.69;;;10.10;65.47
60479;BME280;46321;48.398;11.754;2023-02-19T01:16:12;96931.63;;;10.12;65.22
60479;BME280;46321;48.398;11.754;2023-02-19T01:18:38;96935.72;;;10.15;65.18
60479;BME280;46321;48.398;11.754;2023-02-19T01:21:05;96941.38;;;10.12;65.40
60479;BME280;46321;48.398;11.754;2023-02-19T01:23:31;96940.34;;;10.13;65.26
60479;BME280;46321;48.398;11.754;2023-02-19T01:25:56;96938.53;;;10.05;65.62
60479;BME280;46321;48.398;11.754;2023-02-19T01:28:21;96927.59;;;10.00;66.03
60479;BME280;46321;48.398;11.754;2023-02-19T01:30:47;96930.44;;;10.06;65.80
60479;BME280;46321;48.398;11.754;2023-02-19T01:33:12;96928.78;;;10.05;65.50
60479;BME280;46321;48.398;11.754;2023-02-19T01:35:38;96927.66;;;10.08;65.61
60479;BME280;46321;48.398;11.754;2023-02-19T01:38:03;96927.13;;;10.13;65.66
60479;BME280;46321;48.398;11.754;2023-02-19T01:40:29;96915.88;;;10.11;65.64
60479;BME280;46321;48.398;11.754;2023-02-19T01:42:54;96913.06;;;10.04;65.75
60479;BME280;46321;48.398;11.754;2023-02-19T01:45:26;96915.75;;;10.12;65.63
60479;BME280;46321;48.398;11.754;2023-02-19T01:47:57;96905.00;;;10.05;65.94
60479;BME280;46321;48.398;11.754;2023-02-19T01:50:26;96906.16;;;10.11;65.95
60479;BME280;46321;48.398;11.754;2023-02-19T01:52:52;96899.84;;;10.04;65.86
60479;BME280;46321;48.398;11.754;2023-02-19T01:55:18;96898.69;;;9.98;66.20
60479;BME280;46321;48.398;11.754;2023-02-19T01:57:46;96892.06;;;9.94;66.26
60479;BME280;46321;48.398;11.754;2023-02-19T02:00:14;96899.34;;;10.00;66.41
60479;BME280;46321;48.398;11.754;2023-02-19T02:02:42;96888.28;;;9.96;66.51
60479;BME280;46321;48.398;11.754;2023-02-19T02:05:14;96885.94;;;10.02;66.37
60479;BME280;46321;48.398;11.754;2023-02-19T02:07:43;96882.63;;;10.00;66.82
60479;BME280;46321;48.398;11.754;2023-02-19T02:10:27;96877.34;;;10.00;66.69
60479;BME280;46321;48.398;11.754;2023-02-19T02:12:56;96887.28;;;10.06;66.00
60479;BME280;46321;48.398;11.754;2023-02-19T02:15:23;96873.88;;;9.99;66.37
60479;BME280;46321;48.398;11.754;2023-02-19T02:18:27;96882.81;;;9.90;66.98
60479;BME280;46321;48.398;11.754;2023-02-19T02:21:05;96881.31;;;9.87;66.97
60479;BME280;46321;48.398;11.754;2023-02-19T02:24:02;96873.53;;;9.85;67.32
60479;BME280;46321;48.398;11.754;2023-02-19T02:26:43;96875.19;;;9.95;66.90
60479;BME280;46321;48.398;11.754;2023-02-19T02:29:30;96878.66;;;9.95;66.92
60479;BME280;46321;48.398;11.754;2023-02-19T02:32:24;96876.69;;;9.89;67.15
60479;BME280;46321;48.398;11.754;2023-02-19T02:34:58;96874.53;;;9.93;67.07
60479;BME280;46321;48.398;11.754;2023-02-19T02:37:27;96875.19;;;9.95;66.80
60479;BME280;46321;48.398;11.754;2023-02-19T02:39:56;96858.34;;;9.96;67.11
60479;BME280;46321;48.398;11.754;2023-02-19T02:42:22;96853.72;;;9.98;66.83
60479;BME280;46321;48.398;11.754;2023-02-19T02:44:57;96857.50;;;9.87;67.15
60479;BME280;46321;48.398;11.754;2023-02-19T02:47:48;96857.34;;;9.89;67.04
60479;BME280;46321;48.398;11.754;2023-02-19T02:50:22;96856.31;;;9.81;67.31
60479;BME280;46321;48.398;11.754;2023-02-19T02:52:58;96859.00;;;9.90;67.03
60479;BME280;46321;48.398;11.754;2023-02-19T02:55:46;96849.22;;;9.90;66.75
60479;BME280;46321;48.398;11.754;2023-02-19T02:58:13;96843.63;;;9.93;66.71
60479;BME280;46321;48.398;11.754;2023-02-19T03:00:42;96834.84;;;9.93;66.85
60479;BME280;46321;48.398;11.754;2023-02-19T03:03:29;96835.50;;;9.87;67.02
60479;BME280;46321;48.398;11.754;2023-02-19T03:06:00;96818.00;;;9.85;67.35
60479;BME280;46321;48.398;11.754;2023-02-19T03:08:43;96814.72;;;9.92;67.04
60479;BME280;46321;48.398;11.754;2023-02-19T03:11:11;96819.97;;;9.83;67.75
60479;BME280;46321;48.398;11.754;2023-02-19T03:14:07;96821.81;;;9.83;67.75
60479;BME280;46321;48.398;11.754;2023-02-19T03:16:57;96824.44;;;9.83;67.89
60479;BME280;46321;48.398;11.754;2023-02-19T03:19:49;96813.03;;;9.82;67.95
60479;BME280;46321;48.398;11.754;2023-02-19T03:22:21;96814.53;;;9.77;68.07
60479;BME280;46321;48.398;11.754;2023-02-19T03:25:11;96801.13;;;9.78;67.88
60479;BME280;46321;48.398;11.754;2023-02-19T03:27:58;96801.78;;;9.72;68.23
60479;BME280;46321;48.398;11.754;2023-02-19T03:30:29;96810.72;;;9.79;68.19
60479;BME280;46321;48.398;11.754;2023-02-19T03:33:16;96806.59;;;9.77;68.42
60479;BME280;46321;48.398;11.754;2023-02-19T03:35:49;96804.44;;;9.80;68.53
60479;BME280;46321;48.398;11.754;2023-02-19T03:38:33;96806.25;;;9.71;69.51
60479;BME280;46321;48.398;11.754;2023-02-19T03:41:06;96801.44;;;9.67;69.42
60479;BME280;46321;48.398;11.754;2023-02-19T03:43:46;96792.50;;;9.59;70.04
60479;BME280;46321;48.398;11.754;2023-02-19T03:46:24;96786.91;;;9.71;69.89
60479;BME280;46321;48.398;11.754;2023-02-19T03:48:58;96794.66;;;9.72;69.59
60479;BME280;46321;48.398;11.754;2023-02-19T03:51:30;96800.78;;;9.73;69.78
60479;BME280;46321;48.398;11.754;2023-02-19T03:56:50;96806.38;;;9.61;70.06
60479;BME280;46321;48.398;11.754;2023-02-19T03:59:27;96807.03;;;9.64;70.35
60479;BME280;46321;48.398;11.754;2023-02-19T04:02:19;96818.13;;;9.67;70.10
60479;BME280;46321;48.398;11.754;2023-02-19T04:05:09;96806.22;;;9.63;70.66
60479;BME280;46321;48.398;11.754;2023-02-19T04:07:38;96800.78;;;9.65;70.63
60479;BME280;46321;48.398;11.754;2023-02-19T04:10:06;96796.09;;;9.50;70.95
60479;BME280;46321;48.398;11.754;2023-02-19T04:12:36;96804.69;;;9.52;71.56
60479;BME280;46321;48.398;11.754;2023-02-19T04:15:09;96806.53;;;9.52;71.82
60479;BME280;46321;48.398;11.754;2023-02-19T04:17:58;96811.81;;;9.60;71.43
60479;BME280;46321;48.398;11.754;2023-02-19T04:20:26;96803.06;;;9.51;72.04
60479;BME280;46321;48.398;11.754;2023-02-19T04:22:53;96801.19;;;9.35;72.37
60479;BME280;46321;48.398;11.754;2023-02-19T04:25:20;96808.13;;;9.36;72.53
60479;BME280;46321;48.398;11.754;2023-02-19T04:27:46;96790.13;;;9.31;72.52
60479;BME280;46321;48.398;11.754;2023-02-19T04:30:12;96800.50;;;9.33;72.43
60479;BME280;46321;48.398;11.754;2023-02-19T04:32:38;96803.50;;;9.38;72.19
60479;BME280;46321;48.398;11.754;2023-02-19T04:35:03;96808.25;;;9.26;72.69
60479;BME280;46321;48.398;11.754;2023-02-19T04:37:29;96812.56;;;9.27;72.67
60479;BME280;46321;48.398;11.754;2023-02-19T04:39:54;96808.88;;;9.20;72.74
60479;BME280;46321;48.398;11.754;2023-02-19T04:42:19;96814.00;;;9.21;72.93
60479;BME280;46321;48.398;11.754;2023-02-19T04:44:44;96805.94;;;9.23;73.14
60479;BME280;46321;48.398;11.754;2023-02-19T04:47:10;96820.75;;;9.15;73.17
60479;BME280;46321;48.398;11.754;2023-02-19T04:49:35;96816.41;;;9.06;73.95
60479;BME280;46321;48.398;11.754;2023-02-19T04:52:00;96833.41;;;9.03;74.57
60479;BME280;46321;48.398;11.754;2023-02-19T04:54:25;96833.75;;;9.09;74.19
60479;BME280;46321;48.398;11.754;2023-02-19T04:56:51;96821.69;;;9.06;74.63
60479;BME280;46321;48.398;11.754;2023-02-19T04:59:16;96827.91;;;8.97;75.16
60479;BME280;46321;48.398;11.754;2023-02-19T05:01:41;96835.06;;;9.04;74.73
60479;BME280;46321;48.398;11.754;2023-02-19T05:04:07;96829.38;;;8.91;74.97
60479;BME280;46321;48.398;11.754;2023-02-19T05:06:32;96835.78;;;8.88;75.12
60479;BME280;46321;48.398;11.754;2023-02-19T05:08:57;96820.19;;;9.03;74.23
60479;BME280;46321;48.398;11.754;2023-02-19T05:11:23;96833.41;;;9.03;74.22
60479;BME280;46321;48.398;11.754;2023-02-19T05:13:48;96830.59;;;9.05;74.02
60479;BME280;46321;48.398;11.754;2023-02-19T05:16:14;96828.44;;;9.00;74.33
60479;BME280;46321;48.398;11.754;2023-02-19T05:18:41;96831.22;;;8.99;74.27
60479;BME280;46321;48.398;11.754;2023-02-19T05:21:07;96831.09;;;9.00;74.18
60479;BME280;46321;48.398;11.754;2023-02-19T05:23:32;96845.69;;;8.86;74.83
60479;BME280;46321;48.398;11.754;2023-02-19T05:25:58;96846.34;;;8.88;74.85
60479;BME280;46321;48.398;11.754;2023-02-19T05:28:23;96849.16;;;8.87;74.99
60479;BME280;46321;48.398;11.754;2023-02-19T05:30:53;96848.50;;;8.85;74.95
60479;BME280;46321;48.398;11.754;2023-02-19T05:33:20;96847.69;;;8.92;74.78
60479;BME280;46321;48.398;11.754;2023-02-19T05:35:48;96838.94;;;8.92;74.59
60479;BME280;46321;48.398;11.754;2023-02-19T05:38:15;96844.00;;;8.85;74.95
60479;BME280;46321;48.398;11.754;2023-02-19T05:40:41;96852.59;;;8.87;74.71
60479;BME280;46321;48.398;11.754;2023-02-19T05:43:07;96847.50;;;8.86;75.06
60479;BME280;46321;48.398;11.754;2023-02-19T05:45:33;96860.00;;;8.84;74.88
60479;BME280;46321;48.398;11.754;2023-02-19T05:47:59;96851.59;;;8.80;75.13
60479;BME280;46321;48.398;11.754;2023-02-19T05:50:24;96852.88;;;8.76;75.15
60479;BME280;46321;48.398;11.754;2023-02-19T05:52:50;96850.91;;;8.78;75.00
60479;BME280;46321;48.398;11.754;2023-02-19T05:55:15;96857.84;;;8.79;75.35
60479;BME280;46321;48.398;11.754;2023-02-19T05:57:42;96853.22;;;8.81;75.10
60479;BME280;46321;48.398;11.754;2023-02-19T06:00:09;96858.22;;;8.84;75.15
60479;BME280;46321;48.398;11.754;2023-02-19T06:02:35;96858.47;;;8.73;75.93
60479;BME280;46321;48.398;11.754;2023-02-19T06:05:01;96862.06;;;8.72;75.88
60479;BME280;46321;48.398;11.754;2023-02-19T06:07:26;96857.63;;;8.72;76.19
60479;BME280;46321;48.398;11.754;2023-02-19T06:09:51;96867.66;;;8.68;76.28
60479;BME280;46321;48.398;11.754;2023-02-19T06:12:17;96870.16;;;8.70;76.08
60479;BME280;46321;48.398;11.754;2023-02-19T06:14:42;96867.66;;;8.68;76.33
60479;BME280;46321;48.398;11.754;2023-02-19T06:17:07;96871.81;;;8.71;76.13
60479;BME280;46321;48.398;11.754;2023-02-19T06:19:33;96878.31;;;8.58;76.42
60479;BME280;46321;48.398;11.754;2023-02-19T06:21:58;96878.84;;;8.62;76.62
60479;BME280;46321;48.398;11.754;2023-02-19T06:24:23;96879.13;;;8.59;76.53
60479;BME280;46321;48.398;11.754;2023-02-19T06:26:49;96888.41;;;8.63;76.23
60479;BME280;46321;48.398;11.754;2023-02-19T06:29:15;96878.72;;;8.54;76.65
60479;BME280;46321;48.398;11.754;2023-02-19T06:31:41;96882.16;;;8.64;76.06
60479;BME280;46321;48.398;11.754;2023-02-19T06:34:06;96893.06;;;8.69;76.05
60479;BME280;46321;48.398;11.754;2023-02-19T06:36:31;96887.72;;;8.61;76.05
60479;BME280;46321;48.398;11.754;2023-02-19T06:39:01;96897.16;;;8.64;75.75
60479;BME280;46321;48.398;11.754;2023-02-19T06:41:27;96890.75;;;8.66;75.64
60479;BME280;46321;48.398;11.754;2023-02-19T06:43:52;96905.59;;;8.67;75.70
60479;BME280;46321;48.398;11.754;2023-02-19T06:46:18;96905.47;;;8.69;75.89
60479;BME280;46321;48.398;11.754;2023-02-19T06:48:44;96911.47;;;8.61;77.44
60479;BME280;46321;48.398;11.754;2023-02-19T06:51:14;96920.22;;;8.62;77.61
60479;BME280;46321;48.398;11.754;2023-02-19T06:53:42;96918.28;;;8.64;77.67
60479;BME280;46321;48.398;11.754;2023-02-19T06:56:25;96924.50;;;8.63;77.56
60479;BME280;46321;48.398;11.754;2023-02-19T06:58:56;96928.31;;;8.60;77.70
60479;BME280;46321;48.398;11.754;2023-02-19T07:01:22;96922.72;;;8.63;77.40
60479;BME280;46321;48.398;11.754;2023-02-19T07:03:48;96935.81;;;8.55;78.05
60479;BME280;46321;48.398;11.754;2023-02-19T07:06:14;96948.72;;;8.58;77.68
60479;BME280;46321;48.398;11.754;2023-02-19T07:08:40;96944.16;;;8.60;78.18
60479;BME280;46321;48.398;11.754;2023-02-19T07:11:05;96953.03;;;8.59;78.00
60479;BME280;46321;48.398;11.754;2023-02-19T07:13:31;96945.63;;;8.63;77.96
60479;BME280;46321;48.398;11.754;2023-02-19T07:16:01;96962.06;;;8.75;77.63
60479;BME280;46321;48.398;11.754;2023-02-19T07:18:28;96969.09;;;8.66;77.99
60479;BME280;46321;48.398;11.754;2023-02-19T07:20:53;96963.28;;;8.62;77.75
60479;BME280;46321;48.398;11.754;2023-02-19T07:23:18;96972.00;;;8.63;78.05
60479;BME280;46321;48.398;11.754;2023-02-19T07:25:44;96980.38;;;8.58;78.54
60479;BME280;46321;48.398;11.754;2023-02-19T07:28:09;96979.81;;;8.64;78.60
60479;BME280;46321;48.398;11.754;2023-02-19T07:30:34;96994.97;;;8.62;79.09
60479;BME280;46321;48.398;11.754;2023-02-19T07:32:59;96992.84;;;8.66;78.96
60479;BME280;46321;48.398;11.754;2023-02-19T07:35:25;97014.63;;;8.68;79.45
60479;BME280;46321;48.398;11.754;2023-02-19T07:37:50;97009.19;;;8.69;79.65
60479;BME280;46321;48.398;11.754;2023-02-19T07:40:15;97010.78;;;8.62;80.50
60479;BME280;46321;48.398;11.754;2023-02-19T07:42:41;97021.19;;;8.64;80.84
60479;BME280;46321;48.398;11.754;2023-02-19T07:45:06;97024.53;;;8.56;81.44
60479;BME280;46321;48.398;11.754;2023-02-19T07:47:31;97018.72;;;8.62;81.59
60479;BME280;46321;48.398;11.754;2023-02-19T07:49:57;97035.78;;;8.58;81.72
60479;BME280;46321;48.398;11.754;2023-02-19T07:52:22;97033.88;;;8.60;82.15
60479;BME280;46321;48.398;11.754;2023-02-19T07:54:47;97049.38;;;8.63;82.82
60479;BME280;46321;48.398;11.754;2023-02-19T07:57:13;97047.59;;;8.64;82.38
60479;BME280;46321;48.398;11.754;2023-02-19T07:59:38;97052.88;;;8.54;82.36
60479;BME280;46321;48.398;11.754;2023-02-19T08:02:04;97063.03;;;8.58;81.94
60479;BME280;46321;48.398;11.754;2023-02-19T08:04:51;97053.56;;;8.56;82.18
60479;BME280;46321;48.398;11.754;2023-02-19T08:07:16;97057.47;;;8.52;81.50
60479;BME280;46321;48.398;11.754;2023-02-19T08:09:41;97055.94;;;8.31;80.18
60479;BME280;46321;48.398;11.754;2023-02-19T08:12:08;97056.28;;;8.46;80.37
60479;BME280;46321;48.398;11.754;2023-02-19T08:14:53;97062.00;;;8.41;79.98
60479;BME280;46321;48.398;11.754;2023-02-19T08:17:18;97055.09;;;8.30;79.49
60479;BME280;46321;48.398;11.754;2023-02-19T08:19:43;97052.72;;;8.37;79.42
60479;BME280;46321;48.398;11.754;2023-02-19T08:22:09;97050.91;;;8.38;79.19
60479;BME280;46321;48.398;11.754;2023-02-19T08:24:34;97073.41;;;8.32;79.31
60479;BME280;46321;48.398;11.754;2023-02-19T08:27:01;97073.66;;;8.39;79.18
60479;BME280;46321;48.398;11.754;2023-02-19T08:29:27;97048.91;;;8.21;80.08
60479;BME280;46321;48.398;11.754;2023-02-19T08:31:52;97051.13;;;8.16;80.72
60479;BME280;46321;48.398;11.754;2023-02-19T08:34:17;97054.94;;;8.32;81.87
60479;BME280;46321;48.398;11.754;2023-02-19T08:36:42;97067.25;;;8.41;80.79
60479;BME280;46321;48.398;11.754;2023-02-19T08:39:08;97069.22;;;8.39;80.81
60479;BME280;46321;48.398;11.754;2023-02-19T08:41:34;97061.69;;;8.44;79.88
60479;BME280;46321;48.398;11.754;2023-02-19T08:43:59;97077.22;;;8.47;79.72
60479;BME280;46321;48.398;11.754;2023-02-19T08:46:24;97087.63;;;8.49;78.43
60479;BME280;46321;48.398;11.754;2023-02-19T08:48:50;97067.78;;;8.45;78.56
60479;BME280;46321;48.398;11.754;2023-02-19T08:51:15;97079.34;;;8.44;78.55
60479;BME280;46321;48.398;11.754;2023-02-19T08:53:40;97077.13;;;8.39;78.34
60479;BME280;46321;48.398;11.754;2023-02-19T08:56:11;97075.56;;;8.46;78.14
60479;BME280;46321;48.398;11.754;2023-02-19T08:58:37;97094.75;;;8.39;75.35
60479;BME280;46321;48.398;11.754;2023-02-19T09:01:10;97086.56;;;8.42;76.28
60479;BME280;46321;48.398;11.754;2023-02-19T09:03:36;97082.16;;;8.61;75.52
60479;BME280;46321;48.398;11.754;2023-02-19T09:06:01;97094.28;;;8.53;74.67
60479;BME280;46321;48.398;11.754;2023-02-19T09:08:26;97089.66;;;8.65;75.33
60479;BME280;46321;48.398;11.754;2023-02-19T09:11:03;97088.63;;;8.48;75.26
60479;BME280;46321;48.398;11.754;2023-02-19T09:13:29;97094.94;;;8.65;73.75
60479;BME280;46321;48.398;11.754;2023-02-19T09:15:54;97082.13;;;8.70;73.97
60479;BME280;46321;48.398;11.754;2023-02-19T09:18:23;97085.06;;;8.67;72.71
60479;BME280;46321;48.398;11.754;2023-02-19T09:20:48;97085.59;;;8.89;72.19
60479;BME280;46321;48.398;11.754;2023-02-19T09:23:14;97089.34;;;9.87;71.18
60479;BME280;46321;48.398;11.754;2023-02-19T09:25:39;97084.69;;;11.27;67.55
60479;BME280;46321;48.398;11.754;2023-02-19T09:28:04;97086.44;;;12.10;62.97
60479;BME280;46321;48.398;11.754;2023-02-19T09:30:30;97083.50;;;11.72;63.55
60479;BME280;46321;48.398;11.754;2023-02-19T09:32:55;97082.03;;;11.61;63.53
60479;BME280;46321;48.398;11.754;2023-02-19T09:35:20;97084.38;;;11.55;63.86
60479;BME280;46321;48.398;11.754;2023-02-19T09:37:45;97086.38;;;11.62;63.83
60479;BME280;46321;48.398;11.754;2023-02-19T09:40:11;97074.09;;;12.43;62.26
60479;BME280;46321;48.398;11.754;2023-02-19T09:42:39;97094.13;;;12.54;60.72
60479;BME280;46321;48.398;11.754;2023-02-19T09:45:05;97096.66;;;12.39;60.43
60479;BME280;46321;48.398;11.754;2023-02-19T09:47:31;97096.81;;;12.77;60.45
60479;BME280;46321;48.398;11.754;2023-02-19T09:50:04;97102.69;;;13.43;59.08
60479;BME280;46321;48.398;11.754;2023-02-19T09:52:51;97102.22;;;14.32;56.91
60479;BME280;46321;48.398;11.754;2023-02-19T09:55:40;97101.28;;;14.25;55.27
60479;BME280;46321;48.398;11.754;2023-02-19T09:58:19;97096.38;;;14.89;54.02
60479;BME280;46321;48.398;11.754;2023-02-19T10:00:47;97110.19;;;14.17;55.68
60479;BME280;46321;48.398;11.754;2023-02-19T10:03:35;97103.69;;;14.04;55.44
60479;BME280;46321;48.398;11.754;2023-02-19T10:06:09;97106.19;;;13.67;57.17
60479;BME280;46321;48.398;11.754;2023-02-19T10:08:38;97107.22;;;13.66;57.60
60479;BME280;46321;48.398;11.754;2023-02-19T10:11:04;97098.69;;;13.47;56.33
60479;BME280;46321;48.398;11.754;2023-02-19T10:13:34;97109.25;;;13.09;57.28
60479;BME280;46321;48.398;11.754;2023-02-19T10:16:04;97108.78;;;13.05;57.84
60479;BME280;46321;48.398;11.754;2023-02-19T10:18:41;97118.63;;;12.96;57.44
60479;BME280;46321;48.398;11.754;2023-02-19T10:21:14;97112.06;;;13.78;58.57
60479;BME280;46321;48.398;11.754;2023-02-19T10:23:41;97106.22;;;15.32;51.36
60479;BME280;46321;48.398;11.754;2023-02-19T10:26:07;97122.00;;;15.49;50.09
60479;BME280;46321;48.398;11.754;2023-02-19T10:28:33;97123.53;;;15.37;51.09
60479;BME280;46321;48.398;11.754;2023-02-19T10:31:01;97128.03;;;14.99;50.25
60479;BME280;46321;48.398;11.754;2023-02-19T10:33:27;97136.72;;;14.40;51.59
60479;BME280;46321;48.398;11.754;2023-02-19T10:38:39;97122.53;;;13.64;52.03
60479;BME280;46321;48.398;11.754;2023-02-19T10:41:20;97119.47;;;14.36;50.70
60479;BME280;46321;48.398;11.754;2023-02-19T10:44:06;97119.56;;;15.32;48.21
60479;BME280;46321;48.398;11.754;2023-02-19T10:46:40;97105.88;;;15.36;47.69
60479;BME280;46321;48.398;11.754;2023-02-19T10:49:23;97115.19;;;14.87;48.45
60479;BME280;46321;48.398;11.754;2023-02-19T10:51:51;97120.91;;;14.54;49.06
60479;BME280;46321;48.398;11.754;2023-02-19T10:54:32;97138.25;;;13.89;50.44
60479;BME280;46321;48.398;11.754;2023-02-19T10:57:23;97134.59;;;14.05;50.99
60479;BME280;46321;48.398;11.754;2023-02-19T11:00:18;97120.31;;;14.06;50.45
60479;BME280;46321;48.398;11.754;2023-02-19T11:02:44;97115.28;;;13.49;52.36
60479;BME280;46321;48.398;11.754;2023-02-19T11:08:01;97114.03;;;13.84;52.03
60479;BME280;46321;48.398;11.754;2023-02-19T11:10:32;97113.72;;;13.79;50.26
60479;BME280;46321;48.398;11.754;2023-02-19T11:13:02;97110.34;;;14.00;48.84
60479;BME280;46321;48.398;11.754;2023-02-19T11:15:31;97113.88;;;14.31;48.79
60479;BME280;46321;48.398;11.754;2023-02-19T11:18:17;97118.47;;;16.21;47.06
60479;BME280;46321;48.398;11.754;2023-02-19T11:20:54;97135.47;;;17.05;42.98
60479;BME280;46321;48.398;11.754;2023-02-19T11:23:25;97123.72;;;16.92;42.89
60479;BME280;46321;48.398;11.754;2023-02-19T11:25:53;97123.41;;;17.23;42.46
60479;BME280;46321;48.398;11.754;2023-02-19T11:28:37;97123.66;;;18.30;40.89
60479;BME280;46321;48.398;11.754;2023-02-19T11:31:31;97125.59;;;18.69;39.02
60479;BME280;46321;48.398;11.754;2023-02-19T11:34:01;97122.81;;;18.89;39.41
60479;BME280;46321;48.398;11.754;2023-02-19T11:36:35;97124.06;;;18.13;39.83
60479;BME280;46321;48.398;11.754;2023-02-19T11:41:53;97140.59;;;15.93;42.89
60479;BME280;46321;48.398;11.754;2023-02-19T11:49:51;97110.84;;;13.65;50.53
60479;BME280;46321;48.398;11.754;2023-02-19T11:54:51;97141.31;;;12.75;51.63
60479;BME280;46321;48.398;11.754;2023-02-19T11:57:40;97146.78;;;12.33;53.44
60479;BME280;46321;48.398;11.754;2023-02-19T12:00:23;97141.81;;;12.39;53.66
60479;BME280;46321;48.398;11.754;2023-02-19T12:06:22;97121.97;;;12.58;53.49
60479;BME280;46321;48.398;11.754;2023-02-19T12:09:11;97126.72;;;12.71;53.14
60479;BME280;46321;48.398;11.754;2023-02-19T12:11:52;97115.19;;;12.55;53.54
60479;BME280;46321;48.398;11.754;2023-02-19T12:17:35;97114.63;;;12.68;53.23
60479;BME280;46321;48.398;11.754;2023-02-19T12:20:33;97117.13;;;12.70;53.22
60479;BME280;46321;48.398;11.754;2023-02-19T12:23:10;97133.84;;;12.30;53.92
60479;BME280;46321;48.398;11.754;2023-02-19T12:26:00;97141.50;;;12.17;54.73
60479;BME280;46321;48.398;11.754;2023-02-19T12:28:51;97140.69;;;12.16;53.96
60479;BME280;46321;48.398;11.754;2023-02-19T12:31:33;97138.19;;;12.06;53.90
60479;BME280;46321;48.398;11.754;2023-02-19T12:34:23;97146.81;;;11.83;54.02
60479;BME280;46321;48.398;11.754;2023-02-19T12:39:35;97146.34;;;11.88;53.85
60479;BME280;46321;48.398;11.754;2023-02-19T12:42:37;97152.13;;;11.83;53.52
60479;BME280;46321;48.398;11.754;2023-02-19T12:45:15;97157.78;;;11.80;52.44
60479;BME280;46321;48.398;11.754;2023-02-19T12:47:50;97159.09;;;11.67;52.61
60479;BME280;46321;48.398;11.754;2023-02-19T12:50:24;97153.16;;;11.74;52.56
60479;BME280;46321;48.398;11.754;2023-02-19T12:52:54;97169.06;;;11.74;52.51
60479;BME280;46321;48.398;11.754;2023-02-19T12:55:25;97177.50;;;11.77;52.43
60479;BME280;46321;48.398;11.754;2023-02-19T12:57:53;97156.47;;;11.76;52.45
60479;BME280;46321;48.398;11.754;2023-02-19T13:00:29;97168.06;;;11.66;52.21
60479;BME280;46321;48.398;11.754;2023-02-19T13:03:10;97161.41;;;11.45;52.32
60479;BME280;46321;48.398;11.754;2023-02-19T13:05:50;97163.72;;;11.32;53.34
60479;BME280;46321;48.398;11.754;2023-02-19T13:08:36;97170.88;;;11.40;53.18
60479;BME280;46321;48.398;11.754;2023-02-19T13:13:59;97182.78;;;11.44;53.41
60479;BME280;46321;48.398;11.754;2023-02-19T13:16:28;97176.78;;;11.33;53.63
60479;BME280;46321;48.398;11.754;2023-02-19T13:19:00;97165.22;;;11.34;53.45
60479;BME280;46321;48.398;11.754;2023-02-19T13:21:29;97165.34;;;11.16;53.48
60479;BME280;46321;48.398;11.754;2023-02-19T13:24:20;97174.97;;;11.26;54.21
60479;BME280;46321;48.398;11.754;2023-02-19T13:29:24;97158.91;;;11.19;54.58
60479;BME280;46321;48.398;11.754;2023-02-19T13:37:31;97147.63;;;11.17;56.22
60479;BME280;46321;48.398;11.754;2023-02-19T13:40:01;97161.84;;;10.99;57.05
60479;BME280;46321;48.398;11.754;2023-02-19T13:42:33;97167.78;;;11.01;56.89
60479;BME280;46321;48.398;11.754;2023-02-19T13:45:00;97170.47;;;11.09;56.52
60479;BME280;46321;48.398;11.754;2023-02-19T13:50:18;97152.59;;;11.11;55.32
60479;BME280;46321;48.398;11.754;2023-02-19T13:52:44;97144.16;;;11.16;54.69
60479;BME280;46321;48.398;11.754;2023-02-19T14:01:08;97145.66;;;11.19;52.91